Time;durP1;ratioP1;P1;durP2;ratioP2;P2;SDS_P1;SDS_P2;PMS_P1;PMS_P2;Temp;Humidity;BMP_temperature;BMP_pressure;BME280_temperature;BME280_humidity;BME280_pressure;Samples;Min_cycle;Max_cycle;Signal;HPM_P1;HPM_P2
2022/03/28 00:00:25;;;;;;;12.70;10.57;;;;;;;;;;4981961;28;20206;-62
2022/03/28 00:02:51;;;;;;;13.60;10.97;;;;;;;;;;4978733;28;20233;-62
2022/03/28 00:05:17;;;;;;;13.63;11.33;;;;;;;;;;4974055;28;20221;-63
2022/03/28 00:07:43;;;;;;;11.70;10.27;;;;;;;;;;4976587;28;20312;-62
2022/03/28 00:10:11;;;;;;;13.53;10.73;;;;;;;;;;4973626;28;20252;-63
2022/03/28 00:12:38;;;;;;;12.07;10.20;;;;;;;;;;4969780;28;20239;-62
2022/03/28 00:15:04;;;;;;;12.83;10.47;;;;;;;;;;4976764;28;20605;-63
2022/03/28 00:17:32;;;;;;;13.23;10.33;;;;;;;;;;4973884;28;20194;-63
2022/03/28 00:19:58;;;;;;;13.63;11.10;;;;;;;;;;4979865;28;20193;-62
2022/03/28 00:22:24;;;;;;;12.27;10.40;;;;;;;;;;4979239;28;20190;-63
2022/03/28 00:24:50;;;;;;;12.40;11.10;;;;;;;;;;4982754;28;20194;-63
2022/03/28 00:27:17;;;;;;;13.93;10.43;;;;;;;;;;4980401;28;20197;-63
2022/03/28 00:29:43;;;;;;;12.47;10.30;;;;;;;;;;4980746;28;20220;-63
2022/03/28 00:32:09;;;;;;;13.57;11.43;;;;;;;;;;4975549;28;20204;-63
2022/03/28 00:34:35;;;;;;;14.57;10.00;;;;;;;;;;4977187;28;20194;-63
2022/03/28 00:37:01;;;;;;;11.43;10.20;;;;;;;;;;4980933;28;21921;-63
2022/03/28 00:39:27;;;;;;;13.33;10.33;;;;;;;;;;4976723;28;20194;-62
2022/03/28 00:41:53;;;;;;;14.23;11.30;;;;;;;;;;4982332;28;20608;-61
2022/03/28 00:44:19;;;;;;;13.00;10.97;;;;;;;;;;4980241;28;20951;-63
2022/03/28 00:46:46;;;;;;;12.70;9.80;;;;;;;;;;4984799;28;20189;-61
2022/03/28 00:49:12;;;;;;;13.33;10.30;;;;;;;;;;4978326;28;20189;-62
2022/03/28 00:51:38;;;;;;;14.07;10.43;;;;;;;;;;4976323;28;20213;-62
2022/03/28 00:54:04;;;;;;;13.80;10.20;;;;;;;;;;4976752;28;20194;-61
2022/03/28 00:56:30;;;;;;;14.57;10.67;;;;;;;;;;4973775;28;20606;-62
2022/03/28 00:58:58;;;;;;;12.90;9.83;;;;;;;;;;4975096;28;20190;-63
2022/03/28 01:01:24;;;;;;;12.43;9.97;;;;;;;;;;4970174;28;20521;-62
2022/03/28 01:03:49;;;;;;;14.00;10.77;;;;;;;;;;4963298;28;20383;-62
2022/03/28 01:06:16;;;;;;;13.33;10.33;;;;;;;;;;4978528;28;21093;-62
2022/03/28 01:08:42;;;;;;;13.40;10.63;;;;;;;;;;4976914;28;20775;-62
2022/03/28 01:11:09;;;;;;;13.13;9.80;;;;;;;;;;4981409;28;20221;-62
2022/03/28 01:13:35;;;;;;;12.97;10.27;;;;;;;;;;4973363;28;20280;-61
2022/03/28 01:16:01;;;;;;;14.40;11.10;;;;;;;;;;4968281;28;20194;-61
2022/03/28 01:18:28;;;;;;;13.73;10.37;;;;;;;;;;4970857;28;20198;-62
2022/03/28 01:20:56;;;;;;;12.73;10.03;;;;;;;;;;4974451;28;20271;-63
2022/03/28 01:23:22;;;;;;;12.43;10.33;;;;;;;;;;4983448;28;20195;-62
2022/03/28 01:25:51;;;;;;;13.20;10.97;;;;;;;;;;4977638;28;20285;-61
2022/03/28 01:28:17;;;;;;;14.70;10.40;;;;;;;;;;4979345;28;20278;-63
2022/03/28 01:30:43;;;;;;;13.23;10.23;;;;;;;;;;4972248;28;20221;-63
2022/03/28 01:33:09;;;;;;;13.30;10.93;;;;;;;;;;4983746;28;20659;-62
2022/03/28 01:35:35;;;;;;;15.83;11.50;;;;;;;;;;4975040;28;20676;-62
2022/03/28 01:38:02;;;;;;;13.07;9.60;;;;;;;;;;4978331;28;20287;-61
2022/03/28 01:40:28;;;;;;;15.07;10.97;;;;;;;;;;4973696;28;20189;-63
2022/03/28 01:42:54;;;;;;;12.43;10.13;;;;;;;;;;4982600;28;20275;-62
2022/03/28 01:45:20;;;;;;;11.10;9.50;;;;;;;;;;4977898;28;20193;-62
2022/03/28 01:47:46;;;;;;;15.67;10.70;;;;;;;;;;4981115;28;20256;-63
2022/03/28 01:50:13;;;;;;;14.73;9.97;;;;;;;;;;4976509;28;20213;-63
2022/03/28 01:52:38;;;;;;;14.50;11.03;;;;;;;;;;4979421;28;20643;-63
2022/03/28 01:55:05;;;;;;;12.30;9.97;;;;;;;;;;4979602;28;20474;-63
2022/03/28 01:57:31;;;;;;;13.10;10.83;;;;;;;;;;4982918;28;20198;-63
2022/03/28 01:59:57;;;;;;;17.97;10.63;;;;;;;;;;4981829;28;20271;-63
2022/03/28 02:02:23;;;;;;;13.90;10.30;;;;;;;;;;4980301;28;20193;-63
2022/03/28 02:04:49;;;;;;;15.40;10.40;;;;;;;;;;4976896;28;20267;-63
2022/03/28 02:07:16;;;;;;;14.40;9.70;;;;;;;;;;4976516;28;20194;-62
2022/03/28 02:09:42;;;;;;;18.50;11.13;;;;;;;;;;4976858;28;20202;-61
2022/03/28 02:12:08;;;;;;;16.53;11.10;;;;;;;;;;4979065;28;20872;-62
2022/03/28 02:14:34;;;;;;;15.20;11.20;;;;;;;;;;4975483;28;22493;-61
2022/03/28 02:17:00;;;;;;;12.97;10.37;;;;;;;;;;4973863;28;20190;-63
2022/03/28 02:19:26;;;;;;;12.90;10.20;;;;;;;;;;4982646;28;20193;-63
2022/03/28 02:21:52;;;;;;;14.90;11.20;;;;;;;;;;4979947;28;20221;-62
2022/03/28 02:24:17;;;;;;;14.67;10.83;;;;;;;;;;4979133;28;20699;-61
2022/03/28 02:26:43;;;;;;;14.57;10.47;;;;;;;;;;4985673;28;20248;-61
2022/03/28 02:29:09;;;;;;;15.57;10.73;;;;;;;;;;4983565;28;20201;-63
2022/03/28 02:31:35;;;;;;;11.83;9.90;;;;;;;;;;4982770;28;20217;-63
2022/03/28 02:34:01;;;;;;;16.13;11.03;;;;;;;;;;4979847;28;20192;-62
2022/03/28 02:36:27;;;;;;;12.27;10.33;;;;;;;;;;4977084;28;20292;-61
2022/03/28 02:38:53;;;;;;;12.97;10.50;;;;;;;;;;4982194;28;20729;-62
2022/03/28 02:41:19;;;;;;;14.90;10.67;;;;;;;;;;4991121;28;20309;-62
2022/03/28 02:43:45;;;;;;;13.50;10.60;;;;;;;;;;4986934;28;20197;-63
2022/03/28 02:46:11;;;;;;;14.00;11.03;;;;;;;;;;4976289;28;20197;-63
2022/03/28 02:48:37;;;;;;;16.27;11.13;;;;;;;;;;4979685;28;20284;-63
2022/03/28 02:51:03;;;;;;;13.43;11.03;;;;;;;;;;4975862;28;20396;-61
2022/03/28 02:53:29;;;;;;;14.50;11.33;;;;;;;;;;4979103;28;20198;-61
2022/03/28 02:55:54;;;;;;;12.87;10.53;;;;;;;;;;4982630;28;20213;-62
2022/03/28 02:58:20;;;;;;;16.33;11.43;;;;;;;;;;4981225;28;20213;-62
2022/03/28 03:00:47;;;;;;;13.97;10.80;;;;;;;;;;4979440;28;20562;-61
2022/03/28 03:03:13;;;;;;;15.80;11.27;;;;;;;;;;4978848;28;21017;-62
2022/03/28 03:05:39;;;;;;;13.90;11.67;;;;;;;;;;4973866;28;20190;-63
2022/03/28 03:08:05;;;;;;;16.47;11.87;;;;;;;;;;4979548;28;20206;-62
2022/03/28 03:10:33;;;;;;;14.67;11.43;;;;;;;;;;4976180;28;20300;-62
2022/03/28 03:12:59;;;;;;;15.03;11.27;;;;;;;;;;4979723;28;20193;-61
2022/03/28 03:15:25;;;;;;;15.17;11.30;;;;;;;;;;4979948;28;20523;-62
2022/03/28 03:17:51;;;;;;;16.53;11.13;;;;;;;;;;4976215;28;20200;-62
2022/03/28 03:20:17;;;;;;;13.83;11.27;;;;;;;;;;4974734;28;20194;-62
2022/03/28 03:22:43;;;;;;;14.00;10.93;;;;;;;;;;4977146;28;21030;-62
2022/03/28 03:25:09;;;;;;;15.07;11.00;;;;;;;;;;4981734;28;20208;-62
2022/03/28 03:27:38;;;;;;;18.43;12.03;;;;;;;;;;4981455;28;20206;-62
2022/03/28 03:30:07;;;;;;;14.53;10.67;;;;;;;;;;4978734;28;20257;-62
2022/03/28 03:32:35;;;;;;;15.20;11.13;;;;;;;;;;4981342;28;20716;-61
2022/03/28 03:35:01;;;;;;;15.83;11.60;;;;;;;;;;4984730;28;20193;-62
2022/03/28 03:37:28;;;;;;;16.60;11.67;;;;;;;;;;4980843;28;20650;-62
2022/03/28 03:39:54;;;;;;;16.13;11.40;;;;;;;;;;4979350;28;20212;-62
2022/03/28 03:42:20;;;;;;;14.97;10.97;;;;;;;;;;4975003;28;20186;-62
2022/03/28 03:44:46;;;;;;;15.00;11.73;;;;;;;;;;4978182;28;20228;-62
2022/03/28 03:47:12;;;;;;;16.87;12.40;;;;;;;;;;4980453;28;20193;-62
2022/03/28 03:49:38;;;;;;;14.47;11.07;;;;;;;;;;4976318;28;20535;-62
2022/03/28 03:52:04;;;;;;;14.80;11.57;;;;;;;;;;4987527;28;20221;-62
2022/03/28 03:54:31;;;;;;;14.70;11.27;;;;;;;;;;4981071;28;20197;-62
2022/03/28 03:56:57;;;;;;;15.33;11.80;;;;;;;;;;4982621;28;20190;-62
2022/03/28 03:59:23;;;;;;;17.20;12.03;;;;;;;;;;4983349;28;20224;-62
2022/03/28 04:01:49;;;;;;;19.63;12.50;;;;;;;;;;4974877;28;20202;-62
2022/03/28 04:04:15;;;;;;;16.60;12.07;;;;;;;;;;4974001;28;20260;-62
2022/03/28 04:06:41;;;;;;;15.70;10.97;;;;;;;;;;4977128;28;21151;-63
2022/03/28 04:09:07;;;;;;;15.13;11.77;;;;;;;;;;4984179;28;20195;-63
2022/03/28 04:11:33;;;;;;;16.37;11.77;;;;;;;;;;4984888;28;20214;-62
2022/03/28 04:13:59;;;;;;;15.70;11.27;;;;;;;;;;4979531;28;20280;-62
2022/03/28 04:16:25;;;;;;;16.73;11.50;;;;;;;;;;4972653;28;20217;-63
2022/03/28 04:18:51;;;;;;;16.57;11.60;;;;;;;;;;4977710;28;20205;-63
2022/03/28 04:21:17;;;;;;;14.57;11.23;;;;;;;;;;4978788;28;20197;-63
2022/03/28 04:23:43;;;;;;;14.10;11.27;;;;;;;;;;4985899;28;20488;-62
2022/03/28 04:26:09;;;;;;;16.07;11.63;;;;;;;;;;4979065;28;20194;-63
2022/03/28 04:28:35;;;;;;;16.83;12.10;;;;;;;;;;4980354;28;20330;-63
2022/03/28 04:31:01;;;;;;;16.40;12.23;;;;;;;;;;4976587;28;20562;-62
2022/03/28 04:33:27;;;;;;;16.93;12.40;;;;;;;;;;4982273;28;20197;-62
2022/03/28 04:35:53;;;;;;;15.03;11.27;;;;;;;;;;4980769;28;20814;-62
2022/03/28 04:38:19;;;;;;;15.20;11.70;;;;;;;;;;4984416;28;20182;-63
2022/03/28 04:40:45;;;;;;;14.10;11.37;;;;;;;;;;4983303;28;21005;-63
2022/03/28 04:43:12;;;;;;;16.40;11.63;;;;;;;;;;4986332;28;20208;-63
2022/03/28 04:45:38;;;;;;;15.53;11.47;;;;;;;;;;4980072;28;20252;-62
2022/03/28 04:48:04;;;;;;;15.57;12.00;;;;;;;;;;4980901;28;20589;-62
2022/03/28 04:50:30;;;;;;;17.07;11.97;;;;;;;;;;4975311;28;20603;-63
2022/03/28 04:52:56;;;;;;;16.60;11.73;;;;;;;;;;4974430;28;20231;-63
2022/03/28 04:55:22;;;;;;;16.83;12.57;;;;;;;;;;4966316;28;24346;-63
2022/03/28 04:57:48;;;;;;;18.40;11.63;;;;;;;;;;4973530;28;20224;-63
2022/03/28 05:00:14;;;;;;;18.13;12.20;;;;;;;;;;4969649;28;20229;-61
2022/03/28 05:02:40;;;;;;;18.53;12.73;;;;;;;;;;4978517;28;20241;-62
2022/03/28 05:05:06;;;;;;;18.23;13.10;;;;;;;;;;4968525;28;20201;-62
2022/03/28 05:07:32;;;;;;;20.13;12.67;;;;;;;;;;4976753;28;20255;-62
2022/03/28 05:09:58;;;;;;;16.90;12.57;;;;;;;;;;4975385;28;20347;-62
2022/03/28 05:12:24;;;;;;;17.30;12.30;;;;;;;;;;4975272;28;20551;-63
2022/03/28 05:14:50;;;;;;;18.43;12.40;;;;;;;;;;4962252;28;20240;-60
2022/03/28 05:17:22;;;;;;;22.00;12.83;;;;;;;;;;4981446;28;20241;-60
2022/03/28 05:19:51;;;;;;;22.90;13.40;;;;;;;;;;4988528;28;20193;-61
2022/03/28 05:22:17;;;;;;;20.23;14.23;;;;;;;;;;4990976;28;20194;-61
2022/03/28 05:24:43;;;;;;;30.40;16.37;;;;;;;;;;4990373;28;20201;-61
2022/03/28 05:27:09;;;;;;;23.53;14.87;;;;;;;;;;4991837;28;20197;-62
2022/03/28 05:29:35;;;;;;;24.23;14.77;;;;;;;;;;4984937;28;21160;-63
2022/03/28 05:32:01;;;;;;;20.63;14.37;;;;;;;;;;4981255;28;20213;-63
2022/03/28 05:34:30;;;;;;;25.10;14.77;;;;;;;;;;4993871;28;20244;-63
2022/03/28 05:37:00;;;;;;;22.53;15.10;;;;;;;;;;4993459;28;20241;-63
2022/03/28 05:39:29;;;;;;;24.10;15.57;;;;;;;;;;4992335;28;20194;-62
2022/03/28 05:41:55;;;;;;;21.43;14.07;;;;;;;;;;4987980;28;20526;-61
2022/03/28 05:44:21;;;;;;;23.60;14.47;;;;;;;;;;4991323;28;20248;-62
2022/03/28 05:46:48;;;;;;;20.00;14.53;;;;;;;;;;4986491;28;20190;-62
2022/03/28 05:49:14;;;;;;;20.60;14.73;;;;;;;;;;4986545;28;20261;-62
2022/03/28 05:51:40;;;;;;;21.37;14.80;;;;;;;;;;4982706;28;20747;-62
2022/03/28 05:54:06;;;;;;;21.70;14.37;;;;;;;;;;5008840;28;20264;-63
2022/03/28 05:56:32;;;;;;;21.30;14.43;;;;;;;;;;4994331;28;20236;-62
2022/03/28 05:58:58;;;;;;;19.60;13.77;;;;;;;;;;4992487;28;20175;-62
2022/03/28 06:01:25;;;;;;;21.10;14.87;;;;;;;;;;4986763;28;20204;-62
2022/03/28 06:03:51;;;;;;;20.20;14.20;;;;;;;;;;4987771;28;20265;-63
2022/03/28 06:06:17;;;;;;;21.97;14.27;;;;;;;;;;4985987;28;20280;-63
2022/03/28 06:08:43;;;;;;;20.30;13.93;;;;;;;;;;4987773;28;20273;-62
2022/03/28 06:11:10;;;;;;;20.90;13.73;;;;;;;;;;4981870;28;20209;-63
2022/03/28 06:13:36;;;;;;;19.53;14.07;;;;;;;;;;4990355;28;20285;-61
2022/03/28 06:16:02;;;;;;;21.73;14.63;;;;;;;;;;4987719;28;20186;-62
2022/03/28 06:18:29;;;;;;;21.43;14.47;;;;;;;;;;4989035;28;20187;-61
2022/03/28 06:20:54;;;;;;;19.60;13.60;;;;;;;;;;4984311;28;20605;-63
2022/03/28 06:23:20;;;;;;;19.80;14.03;;;;;;;;;;4992691;28;20292;-62
2022/03/28 06:25:46;;;;;;;24.47;14.20;;;;;;;;;;4992347;28;20214;-62
2022/03/28 06:28:13;;;;;;;20.23;13.40;;;;;;;;;;4991318;28;20281;-62
2022/03/28 06:30:39;;;;;;;22.00;13.97;;;;;;;;;;4991306;28;20214;-63
2022/03/28 06:33:05;;;;;;;21.43;14.07;;;;;;;;;;4993385;28;20197;-63
2022/03/28 06:35:31;;;;;;;19.83;14.47;;;;;;;;;;4995263;28;20201;-62
2022/03/28 06:37:57;;;;;;;22.47;14.57;;;;;;;;;;4997628;28;20268;-63
2022/03/28 06:40:24;;;;;;;21.80;15.17;;;;;;;;;;4994702;28;20253;-63
2022/03/28 06:42:50;;;;;;;20.43;14.53;;;;;;;;;;4996671;28;20203;-63
2022/03/28 06:45:15;;;;;;;23.43;14.27;;;;;;;;;;4995279;28;20249;-63
2022/03/28 06:47:42;;;;;;;22.83;14.97;;;;;;;;;;4997858;28;20194;-62
2022/03/28 06:50:08;;;;;;;21.53;15.00;;;;;;;;;;4994761;28;22271;-63
2022/03/28 06:52:34;;;;;;;19.10;14.30;;;;;;;;;;4991132;28;20240;-63
2022/03/28 06:55:00;;;;;;;23.23;14.60;;;;;;;;;;4989624;28;20194;-63
2022/03/28 06:57:26;;;;;;;20.57;14.40;;;;;;;;;;4985457;28;20197;-61
2022/03/28 06:59:55;;;;;;;27.00;15.30;;;;;;;;;;4991250;28;20970;-63
2022/03/28 07:02:21;;;;;;;22.27;15.37;;;;;;;;;;4989032;28;20205;-63
2022/03/28 07:04:47;;;;;;;20.10;15.10;;;;;;;;;;4990967;28;20213;-62
2022/03/28 07:07:13;;;;;;;24.37;15.27;;;;;;;;;;4997108;28;20198;-63
2022/03/28 07:09:39;;;;;;;21.97;15.20;;;;;;;;;;4994801;28;20736;-62
2022/03/28 07:12:05;;;;;;;25.57;15.93;;;;;;;;;;4995646;28;20216;-62
2022/03/28 07:14:34;;;;;;;20.43;14.97;;;;;;;;;;4989569;28;20191;-63
2022/03/28 07:17:00;;;;;;;23.70;15.50;;;;;;;;;;4995162;28;20197;-63
2022/03/28 07:19:26;;;;;;;22.17;15.53;;;;;;;;;;4989932;28;20190;-61
2022/03/28 07:21:52;;;;;;;24.90;15.70;;;;;;;;;;4987292;28;20197;-63
2022/03/28 07:24:20;;;;;;;23.93;16.27;;;;;;;;;;4992192;28;20268;-63
2022/03/28 07:26:48;;;;;;;25.23;15.50;;;;;;;;;;4999386;28;20229;-63
2022/03/28 07:29:14;;;;;;;23.60;16.07;;;;;;;;;;4994278;28;20622;-63
2022/03/28 07:31:40;;;;;;;21.93;16.60;;;;;;;;;;4992686;28;20273;-63
2022/03/28 07:36:52;;;;;;;27.07;17.07;;;;;;;;;;4993622;28;20597;-62
2022/03/28 07:39:19;;;;;;;26.40;16.37;;;;;;;;;;4995185;28;20196;-63
2022/03/28 07:41:45;;;;;;;22.87;16.37;;;;;;;;;;4991279;28;20198;-63
2022/03/28 07:44:11;;;;;;;27.00;16.77;;;;;;;;;;4994172;28;20784;-63
2022/03/28 07:46:37;;;;;;;20.37;16.67;;;;;;;;;;4995089;28;20197;-63
2022/03/28 07:49:03;;;;;;;24.00;16.60;;;;;;;;;;4993193;28;20194;-63
2022/03/28 07:51:29;;;;;;;25.63;17.03;;;;;;;;;;4992307;28;20217;-63
2022/03/28 07:53:55;;;;;;;22.87;17.00;;;;;;;;;;4989678;28;20201;-62
2022/03/28 07:56:21;;;;;;;23.90;15.80;;;;;;;;;;4991670;28;21249;-62
2022/03/28 07:58:47;;;;;;;25.33;17.17;;;;;;;;;;4995282;28;20194;-63
2022/03/28 08:01:13;;;;;;;24.70;16.93;;;;;;;;;;4995749;28;20194;-63
2022/03/28 08:03:39;;;;;;;24.37;16.43;;;;;;;;;;4984771;28;20249;-62
2022/03/28 08:06:06;;;;;;;22.93;16.83;;;;;;;;;;4985626;28;20213;-62
2022/03/28 08:08:35;;;;;;;23.73;17.47;;;;;;;;;;4990301;28;20196;-62
2022/03/28 08:11:01;;;;;;;25.37;16.93;;;;;;;;;;4989464;28;20233;-62
2022/03/28 08:13:27;;;;;;;23.60;16.60;;;;;;;;;;4987471;28;20194;-63
2022/03/28 08:15:53;;;;;;;23.20;16.90;;;;;;;;;;4991327;28;21022;-63
2022/03/28 08:18:19;;;;;;;22.43;17.20;;;;;;;;;;4993290;28;21016;-63
2022/03/28 08:20:45;;;;;;;22.97;17.33;;;;;;;;;;4991287;28;20293;-63
2022/03/28 08:23:11;;;;;;;24.17;17.73;;;;;;;;;;4994093;28;20199;-63
2022/03/28 08:25:37;;;;;;;23.23;17.17;;;;;;;;;;4993988;28;20202;-62
2022/03/28 08:28:03;;;;;;;26.20;17.43;;;;;;;;;;4994372;28;20197;-63
2022/03/28 08:30:29;;;;;;;24.87;17.27;;;;;;;;;;4991715;28;20218;-63
2022/03/28 08:32:55;;;;;;;25.63;18.37;;;;;;;;;;4992575;28;20784;-62
2022/03/28 08:35:22;;;;;;;26.37;18.53;;;;;;;;;;4994016;28;20306;-62
2022/03/28 08:37:48;;;;;;;26.67;18.67;;;;;;;;;;4994225;28;20201;-63
2022/03/28 08:40:14;;;;;;;22.20;17.13;;;;;;;;;;4993459;28;20185;-63
2022/03/28 08:42:40;;;;;;;26.13;18.67;;;;;;;;;;4994861;28;20256;-63
2022/03/28 08:45:07;;;;;;;26.37;18.63;;;;;;;;;;4993163;28;20194;-63
2022/03/28 08:47:33;;;;;;;25.47;18.67;;;;;;;;;;4988762;28;20648;-63
2022/03/28 08:49:59;;;;;;;24.13;18.27;;;;;;;;;;4987618;28;20428;-63
2022/03/28 08:52:25;;;;;;;22.87;17.33;;;;;;;;;;4988059;28;20189;-63
2022/03/28 08:54:51;;;;;;;23.87;17.80;;;;;;;;;;4994174;28;21055;-63
2022/03/28 08:57:17;;;;;;;23.80;17.63;;;;;;;;;;4991431;28;20190;-63
2022/03/28 08:59:43;;;;;;;25.90;17.40;;;;;;;;;;4993294;28;20186;-63
2022/03/28 09:02:28;;;;;;;26.47;19.43;;;;;;;;;;4987045;28;20603;-63
2022/03/28 09:04:57;;;;;;;23.67;16.77;;;;;;;;;;4988419;28;20777;-63
2022/03/28 09:07:26;;;;;;;26.40;18.60;;;;;;;;;;4991657;28;20308;-63
2022/03/28 09:10:02;;;;;;;27.38;16.35;;;;;;;;;;4992233;28;20225;-63
2022/03/28 09:12:28;;;;;;;23.02;17.48;;;;;;;;;;4995163;28;20217;-63
2022/03/28 09:14:59;;;;;;;22.33;17.17;;;;;;;;;;4991909;28;20210;-62
2022/03/28 09:17:25;;;;;;;23.77;17.27;;;;;;;;;;4989362;28;20606;-63
2022/03/28 09:19:53;;;;;;;24.65;17.35;;;;;;;;;;4987190;28;20320;-63
2022/03/28 09:22:19;;;;;;;21.63;16.98;;;;;;;;;;4990576;28;20200;-63
2022/03/28 09:24:45;;;;;;;21.40;16.73;;;;;;;;;;4993200;28;20194;-63
2022/03/28 09:27:12;;;;;;;25.35;18.35;;;;;;;;;;4996883;28;20609;-63
2022/03/28 09:29:57;;;;;;;22.35;17.15;;;;;;;;;;4991146;28;20190;-63
2022/03/28 09:32:27;;;;;;;22.85;16.98;;;;;;;;;;4992959;28;20725;-63
2022/03/28 09:35:06;;;;;;;21.70;17.08;;;;;;;;;;4992975;28;20192;-63
2022/03/28 09:37:46;;;;;;;23.42;17.27;;;;;;;;;;4992028;28;20185;-63
2022/03/28 09:40:22;;;;;;;23.10;16.65;;;;;;;;;;4987844;28;21150;-63
2022/03/28 09:42:49;;;;;;;23.40;17.10;;;;;;;;;;4986286;28;20217;-62
2022/03/28 09:45:19;;;;;;;22.75;16.70;;;;;;;;;;4988617;28;20281;-63
2022/03/28 09:48:15;;;;;;;22.90;17.30;;;;;;;;;;4981659;28;20265;-62
2022/03/28 09:50:42;;;;;;;17.70;15.50;;;;;;;;;;4978174;28;20571;-61
2022/03/28 09:53:20;;;;;;;21.45;16.02;;;;;;;;;;4983630;28;20189;-62
2022/03/28 09:55:47;;;;;;;21.65;15.98;;;;;;;;;;4987935;28;20228;-63
2022/03/28 09:58:31;;;;;;;18.33;15.50;;;;;;;;;;4988539;28;20189;-62
2022/03/28 10:00:57;;;;;;;18.02;14.30;;;;;;;;;;4989869;28;20191;-63
2022/03/28 10:03:23;;;;;;;17.88;15.70;;;;;;;;;;4987037;28;20261;-62
2022/03/28 10:05:50;;;;;;;17.17;15.15;;;;;;;;;;4989653;28;20816;-63
2022/03/28 10:08:16;;;;;;;19.77;15.45;;;;;;;;;;4989579;28;20190;-63
2022/03/28 10:10:42;;;;;;;20.95;14.95;;;;;;;;;;4993359;28;20206;-65
2022/03/28 10:13:08;;;;;;;18.50;15.27;;;;;;;;;;4986929;28;20678;-64
2022/03/28 10:15:33;;;;;;;20.08;15.07;;;;;;;;;;4985314;28;20197;-64
2022/03/28 10:17:59;;;;;;;18.35;14.77;;;;;;;;;;4986207;28;20198;-63
2022/03/28 10:20:26;;;;;;;19.58;14.48;;;;;;;;;;4991419;28;20284;-65
2022/03/28 10:22:53;;;;;;;16.90;14.45;;;;;;;;;;4992404;28;20320;-62
2022/03/28 10:25:21;;;;;;;17.23;13.90;;;;;;;;;;4994392;28;20190;-62
2022/03/28 10:27:47;;;;;;;16.63;13.40;;;;;;;;;;4996823;28;20206;-63
2022/03/28 10:30:24;;;;;;;18.08;13.98;;;;;;;;;;4997451;28;20197;-63
2022/03/28 10:33:09;;;;;;;15.63;14.00;;;;;;;;;;4997215;28;20187;-63
2022/03/28 10:35:35;;;;;;;16.58;13.80;;;;;;;;;;4994085;28;20187;-62
2022/03/28 10:38:17;;;;;;;15.85;12.57;;;;;;;;;;4995022;28;20194;-63
2022/03/28 10:41:02;;;;;;;16.10;12.90;;;;;;;;;;4999296;28;20225;-62
2022/03/28 10:43:29;;;;;;;17.25;12.30;;;;;;;;;;4993633;28;20662;-62
2022/03/28 10:45:58;;;;;;;17.40;13.52;;;;;;;;;;4994703;28;20782;-63
2022/03/28 10:48:33;;;;;;;15.13;13.48;;;;;;;;;;4996519;28;20192;-62
2022/03/28 10:51:03;;;;;;;16.38;13.38;;;;;;;;;;4987113;28;20205;-62
2022/03/28 10:53:43;;;;;;;16.20;12.50;;;;;;;;;;4990100;28;20185;-62
2022/03/28 10:56:16;;;;;;;17.73;12.85;;;;;;;;;;4991662;28;20202;-62
2022/03/28 10:58:43;;;;;;;17.65;12.45;;;;;;;;;;4986800;28;20217;-63
2022/03/28 11:01:12;;;;;;;18.73;12.07;;;;;;;;;;4988226;28;20198;-63
2022/03/28 11:03:39;;;;;;;14.52;11.25;;;;;;;;;;4988285;28;20268;-62
2022/03/28 11:06:05;;;;;;;16.60;12.13;;;;;;;;;;4993116;28;20773;-62
2022/03/28 11:08:32;;;;;;;21.20;11.82;;;;;;;;;;4990487;28;20760;-62
2022/03/28 11:11:17;;;;;;;14.18;11.55;;;;;;;;;;4988764;28;20249;-62
2022/03/28 11:13:43;;;;;;;14.23;11.48;;;;;;;;;;4989931;28;20252;-63
2022/03/28 11:16:21;;;;;;;16.77;10.95;;;;;;;;;;4990623;28;20208;-62
2022/03/28 11:19:23;;;;;;;15.70;10.57;;;;;;;;;;4995908;28;20297;-63
2022/03/28 11:22:15;;;;;;;16.80;11.32;;;;;;;;;;4934913;28;20228;-62
2022/03/28 11:24:41;;;;;;;19.55;10.82;;;;;;;;;;4987978;28;20208;-62
2022/03/28 11:27:07;;;;;;;15.52;10.68;;;;;;;;;;4992018;28;20197;-63
2022/03/28 11:29:33;;;;;;;14.95;10.23;;;;;;;;;;4995383;28;20194;-61
2022/03/28 11:32:04;;;;;;;14.65;10.95;;;;;;;;;;4993966;28;20217;-62
2022/03/28 11:34:30;;;;;;;12.68;9.20;;;;;;;;;;4993875;28;20186;-63
2022/03/28 11:36:59;;;;;;;15.30;9.77;;;;;;;;;;4996622;28;20212;-61
2022/03/28 11:39:27;;;;;;;13.25;9.32;;;;;;;;;;4992598;28;20227;-63
2022/03/28 11:41:53;;;;;;;13.30;10.05;;;;;;;;;;4990659;28;20196;-62
2022/03/28 11:44:19;;;;;;;15.23;10.90;;;;;;;;;;4989666;28;20652;-62
2022/03/28 11:46:45;;;;;;;12.38;9.57;;;;;;;;;;4989895;28;20202;-62
2022/03/28 11:49:11;;;;;;;13.68;9.90;;;;;;;;;;4984179;28;20285;-63
2022/03/28 11:51:38;;;;;;;14.45;9.48;;;;;;;;;;4989526;28;20213;-62
2022/03/28 11:54:04;;;;;;;15.45;9.02;;;;;;;;;;4992516;28;20659;-62
2022/03/28 11:56:30;;;;;;;12.93;7.70;;;;;;;;;;4993110;28;20277;-62
2022/03/28 11:59:15;;;;;;;10.48;7.70;;;;;;;;;;4995607;28;20190;-63
2022/03/28 12:01:41;;;;;;;9.30;7.90;;;;;;;;;;4991777;28;20656;-62
2022/03/28 12:04:07;;;;;;;11.27;8.43;;;;;;;;;;4991075;28;21189;-63
2022/03/28 12:06:34;;;;;;;9.63;7.80;;;;;;;;;;4990200;28;20217;-62
2022/03/28 12:09:01;;;;;;;14.00;8.77;;;;;;;;;;4990248;28;20197;-63
2022/03/28 12:11:27;;;;;;;12.23;7.85;;;;;;;;;;4987209;28;20205;-63
2022/03/28 12:13:53;;;;;;;10.88;8.00;;;;;;;;;;4985911;28;20206;-62
2022/03/28 12:16:19;;;;;;;13.30;8.48;;;;;;;;;;4991960;28;20233;-63
2022/03/28 12:18:45;;;;;;;13.15;8.30;;;;;;;;;;4990126;28;20188;-63
2022/03/28 12:21:12;;;;;;;10.75;7.35;;;;;;;;;;4986162;28;20228;-62
2022/03/28 12:23:38;;;;;;;8.48;6.85;;;;;;;;;;4992726;28;20223;-63
2022/03/28 12:26:05;;;;;;;9.35;6.68;;;;;;;;;;4992589;28;20664;-62
2022/03/28 12:28:34;;;;;;;9.63;7.30;;;;;;;;;;4993084;28;20198;-63
2022/03/28 12:31:02;;;;;;;8.77;7.97;;;;;;;;;;4991245;28;20292;-62
2022/03/28 12:33:29;;;;;;;10.10;8.05;;;;;;;;;;4993813;28;20607;-62
2022/03/28 12:35:59;;;;;;;11.88;7.43;;;;;;;;;;4993016;28;20256;-63
2022/03/28 12:38:35;;;;;;;13.45;7.78;;;;;;;;;;4994073;28;20190;-62
2022/03/28 12:41:03;;;;;;;9.70;7.25;;;;;;;;;;4992436;28;21117;-62
2022/03/28 12:43:30;;;;;;;11.70;7.53;;;;;;;;;;4995337;28;20702;-63
2022/03/28 12:45:56;;;;;;;9.45;7.50;;;;;;;;;;4993241;28;20224;-63
2022/03/28 12:48:22;;;;;;;9.18;7.28;;;;;;;;;;4991797;28;20229;-63
2022/03/28 12:50:52;;;;;;;9.38;8.23;;;;;;;;;;4990821;28;20280;-63
2022/03/28 12:53:18;;;;;;;9.73;7.57;;;;;;;;;;4987143;28;21094;-62
2022/03/28 12:55:44;;;;;;;11.75;8.18;;;;;;;;;;4990612;28;20189;-62
2022/03/28 12:58:11;;;;;;;11.23;7.00;;;;;;;;;;4987998;28;20197;-62
2022/03/28 13:00:37;;;;;;;10.50;6.95;;;;;;;;;;4986797;28;20236;-62
2022/03/28 13:03:03;;;;;;;11.18;6.53;;;;;;;;;;4980141;28;20288;-62
2022/03/28 13:05:29;;;;;;;8.68;6.60;;;;;;;;;;4984554;28;20644;-62
2022/03/28 13:08:08;;;;;;;7.70;6.30;;;;;;;;;;4988433;28;20259;-62
2022/03/28 13:10:38;;;;;;;8.70;7.30;;;;;;;;;;4990280;28;20750;-61
2022/03/28 13:13:04;;;;;;;9.60;7.68;;;;;;;;;;4987805;28;20225;-62
2022/03/28 13:15:31;;;;;;;8.18;6.88;;;;;;;;;;4983545;28;20201;-62
2022/03/28 13:18:05;;;;;;;9.93;6.75;;;;;;;;;;4985681;28;20291;-62
2022/03/28 13:20:31;;;;;;;8.95;7.90;;;;;;;;;;4981112;28;20537;-62
2022/03/28 13:22:58;;;;;;;9.98;7.55;;;;;;;;;;4983592;28;20194;-63
2022/03/28 13:25:25;;;;;;;15.07;7.50;;;;;;;;;;4990343;28;20186;-62
2022/03/28 13:28:08;;;;;;;9.45;7.45;;;;;;;;;;4992333;28;20762;-61
2022/03/28 13:30:44;;;;;;;8.75;7.93;;;;;;;;;;4987660;28;20531;-62
2022/03/28 13:33:11;;;;;;;10.57;8.18;;;;;;;;;;4984324;28;20268;-63
2022/03/28 13:35:38;;;;;;;19.67;17.23;;;;;;;;;;4985920;28;20197;-57
2022/03/28 13:38:04;;;;;;;24.80;21.77;;;;;;;;;;4983820;28;20193;-58
2022/03/28 13:40:31;;;;;;;23.83;18.77;;;;;;;;;;4975424;28;20252;-58
2022/03/28 13:42:57;;;;;;;24.35;20.50;;;;;;;;;;4981230;28;20194;-57
2022/03/28 13:45:23;;;;;;;28.27;20.58;;;;;;;;;;4987259;28;20220;-58
2022/03/28 13:47:50;;;;;;;23.60;19.35;;;;;;;;;;4988481;28;20198;-57
2022/03/28 13:50:16;;;;;;;23.63;17.10;;;;;;;;;;4986220;28;20201;-57
2022/03/28 13:52:43;;;;;;;22.20;18.40;;;;;;;;;;4972761;28;20189;-58
2022/03/28 13:55:09;;;;;;;23.00;17.50;;;;;;;;;;4996189;28;20263;-58
2022/03/28 13:57:35;;;;;;;20.45;17.08;;;;;;;;;;4968810;28;21906;-57
2022/03/28 14:00:01;;;;;;;21.70;16.65;;;;;;;;;;4972055;28;20189;-56
2022/03/28 14:02:27;;;;;;;22.83;16.85;;;;;;;;;;4967429;28;20220;-56
2022/03/28 14:04:53;;;;;;;21.00;16.50;;;;;;;;;;4981216;28;21210;-56
2022/03/28 14:07:19;;;;;;;19.90;14.02;;;;;;;;;;4989348;28;20209;-57
2022/03/28 14:09:45;;;;;;;20.48;14.80;;;;;;;;;;4992577;28;20214;-56
2022/03/28 14:12:11;;;;;;;18.60;14.50;;;;;;;;;;4967557;28;20601;-57
2022/03/28 14:14:37;;;;;;;19.77;15.43;;;;;;;;;;4981449;28;20289;-57
2022/03/28 14:17:03;;;;;;;22.75;16.00;;;;;;;;;;4994390;28;20190;-57
2022/03/28 14:19:29;;;;;;;22.88;16.05;;;;;;;;;;4992656;28;20369;-56
2022/03/28 14:21:56;;;;;;;19.52;15.35;;;;;;;;;;4982626;28;20873;-57
2022/03/28 14:24:22;;;;;;;21.15;15.50;;;;;;;;;;4988888;28;20652;-59